Time;durP1;ratioP1;P1;durP2;ratioP2;P2;SDS_P1;SDS_P2;PMS_P1;PMS_P2;Temp;Humidity;BMP_temperature;BMP_pressure;BME280_temperature;BME280_humidity;BME280_pressure;Samples;Min_cycle;Max_cycle;Signal;HPM_P1;HPM_P2
2021/09/03 13:57:51;;;;;;;;;;;;;;;;;;1875;1203;3030533;-65
2021/09/03 13:58:03;;;;;;;;;;;;;;;;;;2241;1205;3011971;-65
2021/09/03 13:58:15;;;;;;;;;;;;;;;;;;2183;1204;3011658;-65
2021/09/03 13:58:29;;;;;;;;;;;;;;;;;;2221;1204;3010477;-72
2021/09/03 13:58:40;;;;;;;;;;;;;;;;;;1552;1204;3010522;-67
2021/09/03 13:58:52;;;;;;;;;;;;;;;;;;2178;1206;3010696;-67
2021/09/03 13:59:06;;;;;;;;;;;;;;;;;;2234;1204;3010610;-64
2021/09/03 13:59:17;;;;;;;;;;;;;;;;;;1547;1204;3011070;-64
2021/09/03 13:59:29;;;;;;;;;;;;;;;;;;2025;1204;3010758;-65
2021/09/03 13:59:41;;;;;;;;;;;;;;;;;;2196;1203;3010819;-66
2021/09/03 13:59:53;;;;;;;;;;;;;;;;;;2170;1203;3010691;-67
2021/09/03 14:00:05;;;;;;;;;;;;;;;;;;2251;1204;3010770;-66
2021/09/03 14:00:17;;;;;;;;;;;;;;;;;;2211;1204;3010323;-66
2021/09/03 14:00:29;;;;;;;;;;;;;;;;;;2167;1207;3010444;-66
2021/09/03 14:00:41;;;;;;;;;;;;;;;;;;2063;1204;3010833;-67
2021/09/03 14:00:53;;;;;;;;;;;;;;;;;;2190;1207;3010476;-66
2021/09/03 14:01:05;;;;;;;;;;;;;;;;;;2234;1198;3010550;-67
2021/09/03 14:01:17;;;;;;;;;;;;;;;;;;2246;1204;3010548;-67
2021/09/03 14:01:30;;;;;;;;;;;;;;;;;;2181;1205;3010574;-66
2021/09/03 14:01:42;;;;;;;;;;;;;;;;;;1537;1204;3066768;-67
2021/09/03 14:01:54;;;;;;;;;;;;;;;;;;2217;1207;3010608;-67
2021/09/03 14:02:06;;;;;;;;;;;;;;;;;;2242;1199;3010742;-67
2021/09/03 14:02:19;;;;;;;;;;;;;;;;;;2138;1203;3010739;-67
2021/09/03 14:02:30;;;;;;;;;;;;;;;;;;1541;1204;3065521;-67
2021/09/03 14:02:42;;;;;;;;;;;;;;;;;;2177;1205;3010270;-67
2021/09/03 14:02:54;;;;;;;;;;;;;;;;;;2259;1199;3010436;-67
2021/09/03 14:03:06;;;;;;;;;;;;;;;;;;2204;1207;3010403;-66
2021/09/03 14:03:18;;;;;;;;;;;;;;;;;;2250;1204;3010525;-68
2021/09/03 14:03:30;;;;;;;;;;;;;;;;;;2171;1204;3010950;-67
2021/09/03 14:03:42;;;;;;;;;;;;;;;;;;2219;1204;3011318;-67
2021/09/03 14:03:54;;;;;;;;;;;;;;;;;;2100;1205;3010750;-74
2021/09/03 14:04:07;;;;;;;;;;;;;;;;;;2202;1201;3010816;-71
2021/09/03 14:04:18;;;;;;;;;;;;;;;;;;2032;1205;3010591;-70
2021/09/03 14:04:30;;;;;;;;;;;;;;;;;;2215;1204;3010193;-70
2021/09/03 14:04:42;;;;;;;;;;;;;;;;;;2218;1204;3010408;-70
2021/09/03 14:04:55;;;;;;;;;;;;;;;;;;2250;1201;3010756;-70
2021/09/03 14:05:06;;;;;;;;;;;;;;;;;;2202;1207;3010586;-70
2021/09/03 14:05:19;;;;;;;;;;;;;;;;;;2246;1204;3010663;-75
2021/09/03 14:05:31;;;;;;;;;;;;;;;;;;2168;1205;3010933;-75
2021/09/03 14:05:43;;;;;;;;;;;;;;;;;;2263;1201;3010434;-75
2021/09/03 14:05:55;;;;;;;;;;;;;;;;;;2217;1208;3010608;-72
2021/09/03 14:06:07;;;;;;;;;;;;;;;;;;2253;1204;3010875;-65
2021/09/03 14:06:19;;;;;;;;;;;;;;;;;;2189;1204;3010766;-67
2021/09/03 14:06:31;;;;;;;;;;;;;;;;;;1948;1204;3010555;-67
2021/09/03 14:06:43;;;;;;;;;;;;;;;;;;2231;1201;3010637;-68
2021/09/03 14:06:55;;;;;;;;;;;;;;;;;;2244;1204;3010594;-67
2021/09/03 14:07:07;;;;;;;;;;;;;;;;;;2149;1207;3010524;-71
2021/09/03 14:07:19;;;;;;;;;;;;;;;;;;2232;1204;3010758;-70
2021/09/03 14:07:31;;;;;;;;;;;;;;;;;;2178;1204;3010804;-70
2021/09/03 14:07:43;;;;;;;;;;;;;;;;;;2247;1207;3010898;-70
2021/09/03 14:07:55;;;;;;;;;;;;;;;;;;2206;1207;3010335;-70
2021/09/03 14:08:07;;;;;;;;;;;;;;;;;;2240;1205;3010617;-74
2021/09/03 14:08:19;;;;;;;;;;;;;;;;;;2187;1203;3010732;-74
2021/09/03 14:08:31;;;;;;;;;;;;;;;;;;2251;1207;3011030;-68
